PMDY METAR and TAF weather

Enter ICAO airport designator
Station Type Date Time Source
PMDY METAR 2022/08/12 14:56 UTC NOAA

PMDY 121456Z AUTO 09009KT 10SM FEW019 BKN110 27/23 A3023 RMK AO2 SLP237 T02670233 56009 TSNO


Station Type Date Time Source
PMDY Decoded METAR 2022/08/12 14:56 UTC NOAA

Sand Island, Henderson Field Airport, HI, United States (PMDY) 28-13N 177-22W 6M
Aug 12, 2022 - 10:56 AM EDT / 2022.08.12 1456 UTC
Wind: from the E (090 degrees) at 10 MPH (9 KT):0
Visibility: 10 mile(s):0
Sky conditions: mostly cloudy
Temperature: 80.1 F (26.7 C)
Dew Point: 73.9 F (23.3 C)
Relative Humidity: 81%
Pressure (altimeter): 30.23 in. Hg (1023 hPa)
Pressure tendency: 0.03 inches (0.9 hPa) lower than three hours ago
ob: PMDY 121456Z AUTO 09009KT 10SM FEW019 BKN110 27/23 A3023 RMK AO2 SLP237 T02670233 56009 TSNO
cycle: 15

Station Type Date Time Source
PMDY TAF 2022/08/12 12:42 UTC NOAA

TAF PMDY 121141Z 1212/1312 10009KT P6SM VCSH SCT020 SCT050
FM121500 07012KT P6SM VCSH SCT030 SCT045

Example: see airport list